Boca Raton, FL (33431)

12:10 PM EST on January 26, 2015 (GMT -0500)
University Gardens | Change Station
CLOSE
Current Station
Personal Weather Station
Location: Boca Raton, FL
Elevation: 39 ft
Nearby Weather Stations

Elev 39 ft 26.39 °N, 80.09 °W | Updated 8 seconds ago

Mostly Cloudy
Mostly Cloudy
70.3 °F
Feels Like 74 °F
N
16.1
Wind Variable Wind from NW
Gusts 19.5 mph

Today
High -- | Low -- °F
--% Chance of Precip.
Yesterday
High -- | Low -- °F
Precip. -- in
7:07 AM 5:58 PM
Waxing Crescent, 45% visible
Pressure 29.92 in
Visibility 10.0 miles
Clouds Few 4500 ft
Scattered Clouds 6500 ft
Heat Index 74 °F
Dew Point 59 °F
Humidity 68%
Rainfall 0.04 in
Snow Depth Not available.
UV 6 out of 12
Pollen 7.10 out of 12
Air Quality Not available.
Flu Activity Not available.
METAR KPMP 261653Z 28013KT 10SM FEW045 SCT065 21/14 A2992 RMK AO2 RAE1556B14E25 SLP132 P0000 T02060144 $

More Conditions Fewer Conditions

Pressure 29.92 in
Visibility 10.0 miles
Clouds Few 4500 ft
Scattered Clouds 6500 ft
Heat Index 74 °F
Dew Point 59 °F
Humidity 68%
Rainfall 0.04 in
Snow Depth Not available.
UV 6 out of 12
Pollen 7.10 out of 12
Air Quality Not available.
Flu Activity Not available.
METAR KPMP 261653Z 28013KT 10SM FEW045 SCT065 21/14 A2992 RMK AO2 RAE1556B14E25 SLP132 P0000 T02060144 $

More Conditions Fewer Conditions

Nowcast | as of 10:12 am EST on January 26, 2015

Showers were moving quickly eastward into the East Coast Metro areas this morning. Gusty winds up to 35 mph and brief heavy downpours will accompany these showers. Rainfall will end around noon...with breezy to windy conditions continuing through the afternoon.

×

10-Day Weather Forecast

Almanac

Astronomy

Jan. 26, 2015 Rise Set
Actual Time
Civil Twilight
Nautical Twilight
Astronomical Twilight
Moon
Length of Visible Light
Length of Day
Tomorrow will be .
, % of the Moon is Illuminated

Today's Extremes

State Highs State Lows

Community

WunderPhotos

Upload Photos

1,790,298 photos uploaded!

WunderBlogs® & News

Nearby

Air Quality

  Air Quality AQ Index Pollutant
Not available.

Snow Depth

Station Depth Elevation

Earthquake Activity

City Distance Mag. Time & Date
Minimum magnitude displayed is 2.5.

Coastal Water Temperatures

Place Temperature

Nearby Weather Stations